M I D A S
Marine Information and Data Acquisition System
Tripno 1470 of the Zeeleeuw from 2007-12-04 07:34:34 to 2007-12-04 13:11:10
Back to CruiseResearch ActivitiesStationsMapUnderway DataData graphs

EquipmentUnitsComment
TimeDGPSUTC
LatitudeDGPSDM.mWGS84
LongitudeDGPSDM.mWGS84
TemperatureSBE03/SBE38deg celciusITS90
ConductivitySBE21S/mITS90
SalinitySBE21 Practical Salinity Units
ChlorophylAChelsea fluorimeterg/lCalibrated in Aceton
Missing or incorrect values are displayed as -999
Sea surface data collected by the RV Zeeleeuw from 2007-12-04 07:35:02 to 2007-12-04 13:26:15
                                                                                    Next 1000 lines
Time Latitude Longitude Temperature Conductivity Salinity ChlorophylA
2007-12-04 07:35:12 51°13.598 2°56.094 -999 -999 -999 -999
2007-12-04 07:35:17 51°13.598 2°56.093 -999 -999 -999 -999
2007-12-04 07:35:22 51°13.599 2°56.092 -999 -999 -999 -999
2007-12-04 07:35:26 51°13.599 2°56.09 -999 -999 -999 -999
2007-12-04 07:35:32 51°13.599 2°56.088 -999 -999 -999 -999
2007-12-04 07:35:37 51°13.6 2°56.086 -999 -999 -999 -999
2007-12-04 07:35:41 51°13.6 2°56.084 -999 -999 -999 -999
2007-12-04 07:35:46 51°13.601 2°56.081 -999 -999 -999 -999
2007-12-04 07:35:51 51°13.602 2°56.078 -999 -999 -999 -999
2007-12-04 07:35:57 51°13.603 2°56.073 -999 -999 -999 -999
2007-12-04 07:36:02 51°13.604 2°56.069 -999 -999 -999 -999
2007-12-04 07:36:08 51°13.605 2°56.064 -999 -999 -999 -999
2007-12-04 07:36:13 51°13.606 2°56.06 -999 -999 -999 -999
2007-12-04 07:36:18 51°13.608 2°56.054 -999 -999 -999 -999
2007-12-04 07:36:23 51°13.609 2°56.049 -999 -999 -999 -999
2007-12-04 07:36:28 51°13.611 2°56.043 -999 -999 -999 -999
2007-12-04 07:36:33 51°13.612 2°56.037 -999 -999 -999 -999
2007-12-04 07:36:38 51°13.614 2°56.031 -999 -999 -999 -999
2007-12-04 07:36:43 51°13.616 2°56.024 -999 -999 -999 -999
2007-12-04 07:36:48 51°13.618 2°56.018 -999 -999 -999 -999
2007-12-04 07:36:53 51°13.62 2°56.011 -999 -999 -999 -999
2007-12-04 07:36:58 51°13.622 2°56.004 -999 -999 -999 -999
2007-12-04 07:37:03 51°13.624 2°55.997 -999 -999 -999 -999
2007-12-04 07:37:08 51°13.626 2°55.99 -999 -999 -999 -999
2007-12-04 07:37:13 51°13.629 2°55.983 -999 -999 -999 -999
2007-12-04 07:37:18 51°13.631 2°55.976 -999 -999 -999 -999
2007-12-04 07:37:23 51°13.634 2°55.969 -999 -999 -999 -999
2007-12-04 07:37:28 51°13.636 2°55.962 -999 -999 -999 -999
2007-12-04 07:37:33 51°13.639 2°55.955 -999 -999 -999 -999
2007-12-04 07:37:38 51°13.641 2°55.948 -999 -999 -999 -999
2007-12-04 07:37:43 51°13.644 2°55.941 -999 -999 -999 -999
2007-12-04 07:37:48 51°13.647 2°55.934 -999 -999 -999 -999
2007-12-04 07:37:53 51°13.65 2°55.927 -999 -999 -999 -999
2007-12-04 07:37:58 51°13.653 2°55.919 -999 -999 -999 -999
2007-12-04 07:38:03 51°13.656 2°55.911 -999 -999 -999 -999
2007-12-04 07:38:08 51°13.658 2°55.903 -999 -999 -999 -999
2007-12-04 07:38:13 51°13.662 2°55.895 -999 -999 -999 -999
2007-12-04 07:38:18 51°13.664 2°55.887 -999 -999 -999 -999
2007-12-04 07:38:23 51°13.667 2°55.879 -999 -999 -999 -999
2007-12-04 07:38:28 51°13.67 2°55.87 -999 -999 -999 -999
2007-12-04 07:38:33 51°13.672 2°55.862 -999 -999 -999 -999
2007-12-04 07:38:38 51°13.675 2°55.854 -999 -999 -999 -999
2007-12-04 07:38:43 51°13.677 2°55.846 -999 -999 -999 -999
2007-12-04 07:38:48 51°13.679 2°55.838 -999 -999 -999 -999
2007-12-04 07:38:53 51°13.681 2°55.83 -999 -999 -999 -999
2007-12-04 07:38:58 51°13.683 2°55.822 -999 -999 -999 -999
2007-12-04 07:39:03 51°13.684 2°55.814 -999 -999 -999 -999
2007-12-04 07:39:08 51°13.686 2°55.807 -999 -999 -999 -999
2007-12-04 07:39:13 51°13.687 2°55.799 -999 -999 -999 -999
2007-12-04 07:39:18 51°13.688 2°55.792 -999 -999 -999 -999
2007-12-04 07:39:23 51°13.689 2°55.784 -999 -999 -999 -999
2007-12-04 07:39:28 51°13.691 2°55.777 -999 -999 -999 -999
2007-12-04 07:39:33 51°13.692 2°55.77 -999 -999 -999 -999
2007-12-04 07:39:38 51°13.692 2°55.763 -999 -999 -999 -999
2007-12-04 07:39:43 51°13.693 2°55.756 -999 -999 -999 -999
2007-12-04 07:39:48 51°13.694 2°55.75 -999 -999 -999 -999
2007-12-04 07:39:53 51°13.694 2°55.745 -999 -999 -999 -999
2007-12-04 07:39:58 51°13.694 2°55.741 -999 -999 -999 -999
2007-12-04 07:40:02 51°13.695 2°55.737 -999 -999 -999 -999
2007-12-04 07:40:07 51°13.695 2°55.734 -999 -999 -999 -999
2007-12-04 07:40:12 51°13.695 2°55.731 -999 -999 -999 -999
2007-12-04 07:40:17 51°13.695 2°55.729 -999 -999 -999 -999
2007-12-04 07:40:22 51°13.694 2°55.728 -999 -999 -999 -999
2007-12-04 07:40:26 51°13.694 2°55.727 -999 -999 -999 -999
2007-12-04 07:40:31 51°13.694 2°55.727 -999 -999 -999 -999
2007-12-04 07:40:36 51°13.695 2°55.727 -999 -999 -999 -999
2007-12-04 07:40:41 51°13.695 2°55.728 -999 -999 -999 -999
2007-12-04 07:40:46 51°13.696 2°55.73 -999 -999 -999 -999
2007-12-04 07:40:50 51°13.696 2°55.732 -999 -999 -999 -999
2007-12-04 07:40:55 51°13.697 2°55.734 -999 -999 -999 -999
2007-12-04 07:41:00 51°13.698 2°55.737 -999 -999 -999 -999
2007-12-04 07:41:05 51°13.699 2°55.739 -999 -999 -999 -999
2007-12-04 07:41:10 51°13.7 2°55.741 -999 -999 -999 -999
2007-12-04 07:41:14 51°13.701 2°55.742 -999 -999 -999 -999
2007-12-04 07:41:19 51°13.701 2°55.742 -999 -999 -999 -999
2007-12-04 07:41:25 51°13.702 2°55.742 -999 -999 -999 -999
2007-12-04 07:41:29 51°13.701 2°55.742 -999 -999 -999 -999
2007-12-04 07:41:34 51°13.7 2°55.741 -999 -999 -999 -999
2007-12-04 07:41:39 51°13.699 2°55.739 -999 -999 -999 -999
2007-12-04 07:41:45 51°13.697 2°55.736 -999 -999 -999 -999
2007-12-04 07:41:50 51°13.695 2°55.733 -999 -999 -999 -999
2007-12-04 07:41:56 51°13.692 2°55.731 -999 -999 -999 -999
2007-12-04 07:42:01 51°13.691 2°55.729 -999 -999 -999 -999
2007-12-04 07:42:07 51°13.689 2°55.727 -999 -999 -999 -999
2007-12-04 07:42:13 51°13.688 2°55.726 -999 -999 -999 -999
2007-12-04 07:42:18 51°13.688 2°55.726 -999 -999 -999 -999
2007-12-04 07:42:23 51°13.689 2°55.727 -999 -999 -999 -999
2007-12-04 07:42:28 51°13.691 2°55.727 -999 -999 -999 -999
2007-12-04 07:42:33 51°13.694 2°55.728 -999 -999 -999 -999
2007-12-04 07:42:38 51°13.696 2°55.728 -999 -999 -999 -999
2007-12-04 07:42:43 51°13.7 2°55.728 -999 -999 -999 -999
2007-12-04 07:42:48 51°13.703 2°55.727 -999 -999 -999 -999
2007-12-04 07:42:53 51°13.706 2°55.725 -999 -999 -999 -999
2007-12-04 07:42:58 51°13.709 2°55.724 -999 -999 -999 -999
2007-12-04 07:43:02 51°13.712 2°55.722 -999 -999 -999 -999
2007-12-04 07:43:07 51°13.716 2°55.72 -999 -999 -999 -999
2007-12-04 07:43:12 51°13.72 2°55.717 -999 -999 -999 -999
2007-12-04 07:43:17 51°13.724 2°55.714 -999 -999 -999 -999
2007-12-04 07:43:22 51°13.729 2°55.71 -999 -999 -999 -999
2007-12-04 07:43:26 51°13.733 2°55.707 -999 -999 -999 -999
2007-12-04 07:43:31 51°13.738 2°55.703 -999 -999 -999 -999
2007-12-04 07:43:36 51°13.744 2°55.7 -999 -999 -999 -999
2007-12-04 07:43:41 51°13.75 2°55.695 -999 -999 -999 -999
2007-12-04 07:43:46 51°13.757 2°55.69 -999 -999 -999 -999
2007-12-04 07:43:50 51°13.762 2°55.687 -999 -999 -999 -999
2007-12-04 07:43:55 51°13.769 2°55.681 -999 -999 -999 -999
2007-12-04 07:44:00 51°13.776 2°55.676 -999 -999 -999 -999
2007-12-04 07:44:05 51°13.784 2°55.67 -999 -999 -999 -999
2007-12-04 07:44:10 51°13.792 2°55.664 -999 -999 -999 -999
2007-12-04 07:44:14 51°13.799 2°55.659 -999 -999 -999 -999
2007-12-04 07:44:19 51°13.808 2°55.652 -999 -999 -999 -999
2007-12-04 07:44:25 51°13.819 2°55.644 -999 -999 -999 -999
2007-12-04 07:44:27 51°13.822 2°55.641 -999 -999 -999 -999
2007-12-04 07:44:34 51°13.836 2°55.63 -999 -999 -999 -999
2007-12-04 07:44:40 51°13.848 2°55.62 -999 -999 -999 -999
2007-12-04 07:44:44 51°13.856 2°55.613 -999 -999 -999 -999
2007-12-04 07:44:49 51°13.866 2°55.604 -999 -999 -999 -999
2007-12-04 07:44:55 51°13.879 2°55.593 -999 -999 -999 -999
2007-12-04 07:45:00 51°13.89 2°55.585 -999 -999 -999 -999
2007-12-04 07:45:04 51°13.899 2°55.578 -999 -999 -999 -999
2007-12-04 07:45:09 51°13.91 2°55.569 -999 -999 -999 -999
2007-12-04 07:45:15 51°13.923 2°55.559 -999 -999 -999 -999
2007-12-04 07:45:19 51°13.933 2°55.553 -999 -999 -999 -999
2007-12-04 07:45:24 51°13.944 2°55.545 -999 -999 -999 -999
2007-12-04 07:45:29 51°13.956 2°55.536 -999 -999 -999 -999
2007-12-04 07:45:34 51°13.968 2°55.529 -999 -999 -999 -999
2007-12-04 07:45:39 51°13.979 2°55.52 -999 -999 -999 -999
2007-12-04 07:45:45 51°13.993 2°55.51 -999 -999 -999 -999
2007-12-04 07:45:49 51°14.003 2°55.504 -999 -999 -999 -999
2007-12-04 07:45:53 51°14.012 2°55.497 -999 -999 -999 -999
2007-12-04 07:45:59 51°14.026 2°55.488 -999 -999 -999 -999
2007-12-04 07:46:05 51°14.04 2°55.478 -999 -999 -999 -999
2007-12-04 07:46:09 51°14.05 2°55.471 -999 -999 -999 -999
2007-12-04 07:46:15 51°14.064 2°55.461 -999 -999 -999 -999
2007-12-04 07:46:19 51°14.073 2°55.454 -999 -999 -999 -999
2007-12-04 07:46:25 51°14.088 2°55.445 -999 -999 -999 -999
2007-12-04 07:46:29 51°14.097 2°55.438 -999 -999 -999 -999
2007-12-04 07:46:34 51°14.109 2°55.43 -999 -999 -999 -999
2007-12-04 07:46:40 51°14.122 2°55.42 -999 -999 -999 -999
2007-12-04 07:46:46 51°14.136 2°55.409 -999 -999 -999 -999
2007-12-04 07:46:52 51°14.15 2°55.398 -999 -999 -999 -999
2007-12-04 07:46:57 51°14.162 2°55.388 -999 -999 -999 -999
2007-12-04 07:47:03 51°14.175 2°55.376 -999 -999 -999 -999
2007-12-04 07:47:08 51°14.187 2°55.365 -999 -999 -999 -999
2007-12-04 07:47:13 51°14.197 2°55.353 -999 -999 -999 -999
2007-12-04 07:47:18 51°14.208 2°55.34 -999 -999 -999 -999
2007-12-04 07:47:23 51°14.217 2°55.326 -999 -999 -999 -999
2007-12-04 07:47:28 51°14.227 2°55.312 -999 -999 -999 -999
2007-12-04 07:47:33 51°14.237 2°55.297 -999 -999 -999 -999
2007-12-04 07:47:38 51°14.246 2°55.281 -999 -999 -999 -999
2007-12-04 07:47:43 51°14.255 2°55.265 -999 -999 -999 -999
2007-12-04 07:47:48 51°14.264 2°55.248 -999 -999 -999 -999
2007-12-04 07:47:52 51°14.271 2°55.235 -999 -999 -999 -999
2007-12-04 07:47:57 51°14.279 2°55.218 -999 -999 -999 -999
2007-12-04 07:48:02 51°14.288 2°55.201 -999 -999 -999 -999
2007-12-04 07:48:07 51°14.297 2°55.184 -999 -999 -999 -999
2007-12-04 07:48:12 51°14.306 2°55.167 -999 -999 -999 -999
2007-12-04 07:48:16 51°14.313 2°55.154 -999 -999 -999 -999
2007-12-04 07:48:21 51°14.322 2°55.137 -999 -999 -999 -999
2007-12-04 07:48:26 51°14.33 2°55.121 -999 -999 -999 -999
2007-12-04 07:48:31 51°14.339 2°55.103 -999 -999 -999 -999
2007-12-04 07:48:36 51°14.347 2°55.086 -999 -999 -999 -999
2007-12-04 07:48:40 51°14.353 2°55.072 -999 -999 -999 -999
2007-12-04 07:48:45 51°14.361 2°55.054 -999 -999 -999 -999
2007-12-04 07:48:50 51°14.37 2°55.036 -999 -999 -999 -999
2007-12-04 07:48:55 51°14.38 2°55.019 -999 -999 -999 -999
2007-12-04 07:48:59 51°14.388 2°55.005 -999 -999 -999 -999
2007-12-04 07:49:04 51°14.398 2°54.99 -999 -999 -999 -999
2007-12-04 07:49:09 51°14.408 2°54.974 -999 -999 -999 -999
2007-12-04 07:49:15 51°14.419 2°54.955 -999 -999 -999 -999
2007-12-04 07:49:19 51°14.426 2°54.94 -999 -999 -999 -999
2007-12-04 07:49:24 51°14.433 2°54.922 -999 -999 -999 -999
2007-12-04 07:49:29 51°14.44 2°54.903 -999 -999 -999 -999
2007-12-04 07:49:35 51°14.446 2°54.878 -999 -999 -999 -999
2007-12-04 07:49:39 51°14.449 2°54.862 -999 -999 -999 -999
2007-12-04 07:49:44 51°14.452 2°54.842 -999 -999 -999 -999
2007-12-04 07:49:49 51°14.454 2°54.821 -999 -999 -999 -999
2007-12-04 07:49:54 51°14.454 2°54.8 -999 -999 -999 -999
2007-12-04 07:49:59 51°14.453 2°54.779 -999 -999 -999 -999
2007-12-04 07:50:05 51°14.452 2°54.753 -999 -999 -999 -999
2007-12-04 07:50:09 51°14.451 2°54.736 -999 -999 -999 -999
2007-12-04 07:50:13 51°14.449 2°54.718 -999 -999 -999 -999
2007-12-04 07:50:19 51°14.447 2°54.691 -999 -999 -999 -999
2007-12-04 07:50:25 51°14.445 2°54.665 -999 -999 -999 -999
2007-12-04 07:50:29 51°14.442 2°54.647 -999 -999 -999 -999
2007-12-04 07:50:34 51°14.439 2°54.624 -999 -999 -999 -999
2007-12-04 07:50:39 51°14.435 2°54.602 -999 -999 -999 -999
2007-12-04 07:50:45 51°14.431 2°54.575 -999 -999 -999 -999
2007-12-04 07:50:49 51°14.428 2°54.556 -999 -999 -999 -999
2007-12-04 07:50:54 51°14.423 2°54.534 -999 -999 -999 -999
2007-12-04 07:50:59 51°14.417 2°54.512 -999 -999 -999 -999
2007-12-04 07:51:05 51°14.41 2°54.486 -999 -999 -999 -999
2007-12-04 07:51:09 51°14.406 2°54.468 -999 -999 -999 -999
2007-12-04 07:51:14 51°14.399 2°54.447 -999 -999 -999 -999
2007-12-04 07:51:19 51°14.394 2°54.423 -999 -999 -999 -999
2007-12-04 07:51:25 51°14.386 2°54.397 -999 -999 -999 -999
2007-12-04 07:51:29 51°14.381 2°54.379 -999 -999 -999 -999
2007-12-04 07:51:34 51°14.375 2°54.357 -999 -999 -999 -999
2007-12-04 07:51:40 51°14.367 2°54.331 -999 -999 -999 -999
2007-12-04 07:51:44 51°14.363 2°54.312 -999 -999 -999 -999
2007-12-04 07:51:49 51°14.357 2°54.291 -999 -999 -999 -999
2007-12-04 07:51:55 51°14.351 2°54.263 -999 -999 -999 -999
2007-12-04 07:52:00 51°14.343 2°54.242 -999 -999 -999 -999
2007-12-04 07:52:04 51°14.34 2°54.223 -999 -999 -999 -999
2007-12-04 07:52:09 51°14.332 2°54.202 -999 -999 -999 -999
2007-12-04 07:52:14 51°14.326 2°54.18 -999 -999 -999 -999
2007-12-04 07:52:20 51°14.319 2°54.152 -999 -999 -999 -999
2007-12-04 07:52:24 51°14.314 2°54.134 -999 -999 -999 -999
2007-12-04 07:52:29 51°14.308 2°54.112 -999 -999 -999 -999
2007-12-04 07:52:34 51°14.302 2°54.09 -999 -999 -999 -999
2007-12-04 07:52:40 51°14.295 2°54.063 -999 -999 -999 -999
2007-12-04 07:52:45 51°14.289 2°54.04 -999 -999 -999 -999
2007-12-04 07:52:49 51°14.283 2°54.022 -999 -999 -999 -999
2007-12-04 07:52:53 51°14.279 2°54.004 -999 -999 -999 -999
2007-12-04 07:52:59 51°14.271 2°53.977 -999 -999 -999 -999
2007-12-04 07:53:05 51°14.265 2°53.95 -999 -999 -999 -999
2007-12-04 07:53:09 51°14.259 2°53.932 -999 -999 -999 -999
2007-12-04 07:53:14 51°14.255 2°53.909 -999 -999 -999 -999
2007-12-04 07:53:19 51°14.247 2°53.887 -999 -999 -999 -999
2007-12-04 07:53:25 51°14.239 2°53.861 -999 -999 -999 -999
2007-12-04 07:53:29 51°14.235 2°53.842 -999 -999 -999 -999
2007-12-04 07:53:34 51°14.227 2°53.82 -999 -999 -999 -999
2007-12-04 07:53:39 51°14.221 2°53.798 -999 -999 -999 -999
2007-12-04 07:53:45 51°14.212 2°53.772 -999 -999 -999 -999
2007-12-04 07:53:49 51°14.206 2°53.754 -999 -999 -999 -999
2007-12-04 07:53:53 51°14.202 2°53.737 -999 -999 -999 -999
2007-12-04 07:53:59 51°14.192 2°53.711 -999 -999 -999 -999
2007-12-04 07:54:05 51°14.183 2°53.686 -999 -999 -999 -999
2007-12-04 07:54:09 51°14.178 2°53.669 -999 -999 -999 -999
2007-12-04 07:54:15 51°14.168 2°53.644 -999 -999 -999 -999
2007-12-04 07:54:20 51°14.161 2°53.622 -999 -999 -999 -999
2007-12-04 07:54:24 51°14.155 2°53.605 -999 -999 -999 -999
2007-12-04 07:54:29 51°14.146 2°53.584 -999 -999 -999 -999
2007-12-04 07:54:34 51°14.14 2°53.562 -999 -999 -999 -999
2007-12-04 07:54:40 51°14.13 2°53.537 -999 -999 -999 -999
2007-12-04 07:54:44 51°14.126 2°53.519 -999 -999 -999 -999
2007-12-04 07:54:49 51°14.117 2°53.499 -999 -999 -999 -999
2007-12-04 07:54:54 51°14.11 2°53.476 -999 -999 -999 -999
2007-12-04 07:55:00 51°14.101 2°53.45 -999 -999 -999 -999
2007-12-04 07:55:04 51°14.094 2°53.434 -999 -999 -999 -999
2007-12-04 07:55:09 51°14.088 2°53.411 -999 -999 -999 -999
2007-12-04 07:55:13 51°14.08 2°53.395 -999 -999 -999 -999
2007-12-04 07:55:19 51°14.073 2°53.368 -999 -999 -999 -999
2007-12-04 07:55:25 51°14.063 2°53.342 -999 -999 -999 -999
2007-12-04 07:55:29 51°14.058 2°53.325 -999 -999 -999 -999
2007-12-04 07:55:34 51°14.049 2°53.304 -999 -999 -999 -999
2007-12-04 07:55:39 51°14.042 2°53.281 -999 -999 -999 -999
2007-12-04 07:55:44 51°14.035 2°53.259 -999 -999 -999 -999
2007-12-04 07:55:49 51°14.027 2°53.238 -999 -999 -999 -999
2007-12-04 07:55:54 51°14.019 2°53.216 -999 -999 -999 -999
2007-12-04 07:55:59 51°14.011 2°53.194 -999 -999 -999 -999
2007-12-04 07:56:04 51°14.004 2°53.172 -999 -999 -999 -999
2007-12-04 07:56:09 51°13.995 2°53.152 -999 -999 -999 -999
2007-12-04 07:56:14 51°13.988 2°53.13 -999 -999 -999 -999
2007-12-04 07:56:20 51°13.978 2°53.105 -999 -999 -999 -999
2007-12-04 07:56:25 51°13.968 2°53.085 -999 -999 -999 -999
2007-12-04 07:56:29 51°13.962 2°53.067 -999 -999 -999 -999
2007-12-04 07:56:34 51°13.952 2°53.049 -999 -999 -999 -999
2007-12-04 07:56:40 51°13.943 2°53.022 -999 -999 -999 -999
2007-12-04 07:56:45 51°13.932 2°53.004 -999 -999 -999 -999
2007-12-04 07:56:49 51°13.927 2°52.986 -999 -999 -999 -999
2007-12-04 07:56:54 51°13.916 2°52.967 -999 -999 -999 -999
2007-12-04 07:56:59 51°13.909 2°52.945 -999 -999 -999 -999
2007-12-04 07:57:05 51°13.896 2°52.924 -999 -999 -999 -999
2007-12-04 07:57:09 51°13.89 2°52.905 -999 -999 -999 -999
2007-12-04 07:57:14 51°13.879 2°52.887 -999 -999 -999 -999
2007-12-04 07:57:19 51°13.871 2°52.866 -999 -999 -999 -999
2007-12-04 07:57:25 51°13.858 2°52.844 -999 -999 -999 -999
2007-12-04 07:57:29 51°13.852 2°52.827 -999 -999 -999 -999
2007-12-04 07:57:34 51°13.84 2°52.81 -999 -999 -999 -999
2007-12-04 07:57:39 51°13.833 2°52.787 -999 -999 -999 -999
2007-12-04 07:57:45 51°13.82 2°52.766 -999 -999 -999 -999
2007-12-04 07:57:49 51°13.811 2°52.752 -999 -999 -999 -999
2007-12-04 07:57:54 51°13.802 2°52.731 -999 -999 -999 -999
2007-12-04 07:57:59 51°13.791 2°52.714 -999 -999 -999 -999
2007-12-04 07:58:04 51°13.783 2°52.693 -999 -999 -999 -999
2007-12-04 07:58:09 51°13.772 2°52.675 -999 -999 -999 -999
2007-12-04 07:58:13 51°13.765 2°52.658 -999 -999 -999 -999
2007-12-04 07:58:19 51°13.753 2°52.635 -999 -999 -999 -999
2007-12-04 07:58:24 51°13.745 2°52.614 -999 -999 -999 -999
2007-12-04 07:58:29 51°13.734 2°52.595 -999 -999 -999 -999
2007-12-04 07:58:35 51°13.723 2°52.573 -999 -999 -999 -999
2007-12-04 07:58:39 51°13.715 2°52.557 -999 -999 -999 -999
2007-12-04 07:58:44 51°13.706 2°52.537 -999 -999 -999 -999
2007-12-04 07:58:49 51°13.695 2°52.519 -999 -999 -999 -999
2007-12-04 07:58:55 51°13.685 2°52.494 -999 -999 -999 -999
2007-12-04 07:58:59 51°13.676 2°52.479 -999 -999 -999 -999
2007-12-04 07:59:04 51°13.667 2°52.459 -999 -999 -999 -999
2007-12-04 07:59:09 51°13.658 2°52.44 -999 -999 -999 -999
2007-12-04 07:59:13 51°13.649 2°52.426 -999 -999 -999 -999
2007-12-04 07:59:19 51°13.639 2°52.401 -999 -999 -999 -999
2007-12-04 07:59:25 51°13.627 2°52.379 -999 -999 -999 -999
2007-12-04 07:59:29 51°13.619 2°52.363 -999 -999 -999 -999
2007-12-04 07:59:34 51°13.611 2°52.342 -999 -999 -999 -999
2007-12-04 07:59:39 51°13.6 2°52.324 -999 -999 -999 -999
2007-12-04 07:59:45 51°13.591 2°52.299 -999 -999 -999 -999
2007-12-04 07:59:49 51°13.582 2°52.285 -999 -999 -999 -999
2007-12-04 07:59:55 51°13.572 2°52.26 -999 -999 -999 -999
2007-12-04 07:59:59 51°13.562 2°52.247 -999 -999 -999 -999
2007-12-04 08:00:05 51°13.551 2°52.223 -999 -999 -999 -999
2007-12-04 08:00:09 51°13.543 2°52.208 -999 -999 -999 -999
2007-12-04 08:00:15 51°13.533 2°52.185 -999 -999 -999 -999
2007-12-04 08:00:19 51°13.524 2°52.171 -999 -999 -999 -999
2007-12-04 08:00:24 51°13.515 2°52.151 -999 -999 -999 -999
2007-12-04 08:00:29 51°13.505 2°52.134 -999 -999 -999 -999
2007-12-04 08:00:34 51°13.496 2°52.115 -999 -999 -999 -999
2007-12-04 08:00:39 51°13.487 2°52.095 -999 -999 -999 -999
2007-12-04 08:00:44 51°13.477 2°52.077 -999 -999 -999 -999
2007-12-04 08:00:49 51°13.468 2°52.059 -999 -999 -999 -999
2007-12-04 08:00:53 51°13.459 2°52.045 -999 -999 -999 -999
2007-12-04 08:00:59 51°13.449 2°52.021 -999 -999 -999 -999
2007-12-04 08:01:04 51°13.439 2°52.004 -999 -999 -999 -999
2007-12-04 08:01:09 51°13.43 2°51.983 -999 -999 -999 -999
2007-12-04 08:01:14 51°13.42 2°51.966 -999 -999 -999 -999
2007-12-04 08:01:20 51°13.41 2°51.942 -999 -999 -999 -999
2007-12-04 08:01:24 51°13.4 2°51.929 -999 -999 -999 -999
2007-12-04 08:01:29 51°13.393 2°51.908 -999 -999 -999 -999
2007-12-04 08:01:34 51°13.381 2°51.892 -999 -999 -999 -999
2007-12-04 08:01:40 51°13.373 2°51.868 -999 -999 -999 -999
2007-12-04 08:01:44 51°13.364 2°51.856 -999 -999 -999 -999
2007-12-04 08:01:49 51°13.356 2°51.836 -999 -999 -999 -999
2007-12-04 08:01:54 51°13.347 2°51.82 -999 -999 -999 -999
2007-12-04 08:01:59 51°13.339 2°51.802 -999 -999 -999 -999
2007-12-04 08:02:05 51°13.329 2°51.783 -999 -999 -999 -999
2007-12-04 08:02:09 51°13.323 2°51.769 -999 -999 -999 -999
2007-12-04 08:02:14 51°13.315 2°51.753 -999 -999 -999 -999
2007-12-04 08:02:19 51°13.308 2°51.739 -999 -999 -999 -999
2007-12-04 08:02:25 51°13.301 2°51.722 -999 -999 -999 -999
2007-12-04 08:02:29 51°13.295 2°51.712 -999 -999 -999 -999
2007-12-04 08:02:34 51°13.291 2°51.699 -999 -999 -999 -999
2007-12-04 08:02:39 51°13.283 2°51.69 -999 -999 -999 -999
2007-12-04 08:02:44 51°13.28 2°51.678 -999 -999 -999 -999
2007-12-04 08:02:49 51°13.274 2°51.67 -999 -999 -999 -999
2007-12-04 08:02:55 51°13.267 2°51.661 -999 -999 -999 -999
2007-12-04 08:02:59 51°13.264 2°51.652 -999 -999 -999 -999
2007-12-04 08:03:04 51°13.258 2°51.644 -999 -999 -999 -999
2007-12-04 08:03:09 51°13.254 2°51.634 -999 -999 -999 -999
2007-12-04 08:03:15 51°13.247 2°51.623 -999 -999 -999 -999
2007-12-04 08:03:19 51°13.243 2°51.616 -999 -999 -999 -999
2007-12-04 08:03:24 51°13.237 2°51.605 -999 -999 -999 -999
2007-12-04 08:03:29 51°13.231 2°51.594 -999 -999 -999 -999
2007-12-04 08:03:34 51°13.224 2°51.583 -999 -999 -999 -999
2007-12-04 08:03:39 51°13.219 2°51.57 -999 -999 -999 -999
2007-12-04 08:03:44 51°13.212 2°51.56 -999 -999 -999 -999
2007-12-04 08:03:49 51°13.207 2°51.549 -999 -999 -999 -999
2007-12-04 08:03:53 51°13.202 2°51.541 -999 -999 -999 -999
2007-12-04 08:03:59 51°13.198 2°51.529 -999 -999 -999 -999
2007-12-04 08:04:05 51°13.194 2°51.518 -999 -999 -999 -999
2007-12-04 08:04:09 51°13.192 2°51.511 -999 -999 -999 -999
2007-12-04 08:04:14 51°13.19 2°51.504 -999 -999 -999 -999
2007-12-04 08:04:19 51°13.189 2°51.496 -999 -999 -999 -999
2007-12-04 08:04:25 51°13.188 2°51.488 -999 -999 -999 -999
2007-12-04 08:04:29 51°13.188 2°51.483 -999 -999 -999 -999
2007-12-04 08:04:34 51°13.188 2°51.476 -999 -999 -999 -999
2007-12-04 08:04:39 51°13.188 2°51.47 -999 -999 -999 -999
2007-12-04 08:04:44 51°13.189 2°51.465 -999 -999 -999 -999
2007-12-04 08:04:49 51°13.19 2°51.459 -999 -999 -999 -999
2007-12-04 08:04:54 51°13.192 2°51.453 -999 -999 -999 -999
2007-12-04 08:05:00 51°13.195 2°51.447 -999 -999 -999 -999
2007-12-04 08:05:05 51°13.198 2°51.442 -999 -999 -999 -999
2007-12-04 08:05:09 51°13.201 2°51.437 -999 -999 -999 -999
2007-12-04 08:05:14 51°13.204 2°51.432 -999 -999 -999 -999
2007-12-04 08:05:20 51°13.209 2°51.424 -999 -999 -999 -999
2007-12-04 08:05:25 51°13.213 2°51.419 -999 -999 -999 -999
2007-12-04 08:05:29 51°13.217 2°51.414 -999 -999 -999 -999
2007-12-04 08:05:34 51°13.221 2°51.406 -999 -999 -999 -999
2007-12-04 08:05:39 51°13.226 2°51.399 -999 -999 -999 -999
2007-12-04 08:05:45 51°13.232 2°51.391 -999 -999 -999 -999
2007-12-04 08:05:49 51°13.236 2°51.384 -999 -999 -999 -999
2007-12-04 08:05:54 51°13.241 2°51.376 -999 -999 -999 -999
2007-12-04 08:06:00 51°13.249 2°51.367 -999 -999 -999 -999
2007-12-04 08:06:05 51°13.256 2°51.361 -999 -999 -999 -999
2007-12-04 08:06:09 51°13.262 2°51.357 -999 -999 -999 -999
2007-12-04 08:06:14 51°13.27 2°51.354 -999 -999 -999 -999
2007-12-04 08:06:20 51°13.28 2°51.353 -999 -999 -999 -999
2007-12-04 08:06:25 51°13.288 2°51.353 -999 -999 -999 -999
2007-12-04 08:06:29 51°13.296 2°51.354 -999 -999 -999 -999
2007-12-04 08:06:34 51°13.305 2°51.355 -999 -999 -999 -999
2007-12-04 08:06:39 51°13.314 2°51.357 -999 -999 -999 -999
2007-12-04 08:06:44 51°13.324 2°51.359 -999 -999 -999 -999
2007-12-04 08:06:49 51°13.334 2°51.362 -999 -999 -999 -999
2007-12-04 08:06:53 51°13.341 2°51.365 -999 -999 -999 -999
2007-12-04 08:06:59 51°13.353 2°51.368 -999 -999 -999 -999
2007-12-04 08:07:04 51°13.363 2°51.371 -999 -999 -999 -999
2007-12-04 08:07:09 51°13.372 2°51.375 -999 -999 -999 -999
2007-12-04 08:07:15 51°13.384 2°51.378 -999 -999 -999 -999
2007-12-04 08:07:20 51°13.394 2°51.381 -999 -999 -999 -999
2007-12-04 08:07:25 51°13.403 2°51.384 -999 -999 -999 -999
2007-12-04 08:07:29 51°13.41 2°51.386 -999 -999 -999 -999
2007-12-04 08:07:34 51°13.417 2°51.388 -999 -999 -999 -999
2007-12-04 08:07:39 51°13.424 2°51.391 -999 -999 -999 -999
2007-12-04 08:07:44 51°13.43 2°51.393 -999 -999 -999 -999
2007-12-04 08:07:49 51°13.435 2°51.396 -999 -999 -999 -999
2007-12-04 08:07:54 51°13.44 2°51.398 -999 -999 -999 -999
2007-12-04 08:08:00 51°13.445 2°51.401 -999 -999 -999 -999
2007-12-04 08:08:04 51°13.448 2°51.403 -999 -999 -999 -999
2007-12-04 08:08:09 51°13.452 2°51.406 -999 -999 -999 -999
2007-12-04 08:08:14 51°13.455 2°51.409 -999 -999 -999 -999
2007-12-04 08:08:19 51°13.457 2°51.412 -999 -999 -999 -999
2007-12-04 08:08:24 51°13.46 2°51.415 -999 -999 -999 -999
2007-12-04 08:08:29 51°13.462 2°51.418 -999 -999 -999 -999
2007-12-04 08:08:34 51°13.464 2°51.421 -999 -999 -999 -999
2007-12-04 08:08:39 51°13.466 2°51.425 -999 -999 -999 -999
2007-12-04 08:08:44 51°13.468 2°51.428 -999 -999 -999 -999
2007-12-04 08:08:49 51°13.47 2°51.431 -999 -999 -999 -999
2007-12-04 08:08:53 51°13.471 2°51.434 -999 -999 -999 -999
2007-12-04 08:08:59 51°13.473 2°51.438 -999 -999 -999 -999
2007-12-04 08:09:04 51°13.474 2°51.441 -999 -999 -999 -999
2007-12-04 08:09:09 51°13.476 2°51.444 -999 -999 -999 -999
2007-12-04 08:09:15 51°13.477 2°51.448 -999 -999 -999 -999
2007-12-04 08:09:19 51°13.478 2°51.451 -999 -999 -999 -999
2007-12-04 08:09:24 51°13.479 2°51.454 -999 -999 -999 -999
2007-12-04 08:09:29 51°13.48 2°51.458 -999 -999 -999 -999
2007-12-04 08:09:34 51°13.482 2°51.462 -999 -999 -999 -999
2007-12-04 08:09:39 51°13.483 2°51.465 -999 -999 -999 -999
2007-12-04 08:09:44 51°13.484 2°51.469 -999 -999 -999 -999
2007-12-04 08:09:49 51°13.485 2°51.472 -999 -999 -999 -999
2007-12-04 08:09:53 51°13.486 2°51.475 -999 -999 -999 -999
2007-12-04 08:09:59 51°13.487 2°51.48 -999 -999 -999 -999
2007-12-04 08:10:04 51°13.488 2°51.484 -999 -999 -999 -999
2007-12-04 08:10:09 51°13.489 2°51.487 -999 -999 -999 -999
2007-12-04 08:10:14 51°13.49 2°51.49 -999 -999 -999 -999
2007-12-04 08:10:20 51°13.491 2°51.495 -999 -999 -999 -999
2007-12-04 08:10:24 51°13.491 2°51.498 -999 -999 -999 -999
2007-12-04 08:10:29 51°13.492 2°51.502 -999 -999 -999 -999
2007-12-04 08:10:34 51°13.493 2°51.506 -999 -999 -999 -999
2007-12-04 08:10:40 51°13.494 2°51.51 -999 -999 -999 -999
2007-12-04 08:10:44 51°13.495 2°51.513 -999 -999 -999 -999
2007-12-04 08:10:49 51°13.496 2°51.516 -999 -999 -999 -999
2007-12-04 08:10:54 51°13.496 2°51.52 -999 -999 -999 -999
2007-12-04 08:10:59 51°13.497 2°51.523 -999 -999 -999 -999
2007-12-04 08:11:05 51°13.498 2°51.528 -999 -999 -999 -999
2007-12-04 08:11:09 51°13.499 2°51.53 -999 -999 -999 -999
2007-12-04 08:11:14 51°13.499 2°51.534 -999 -999 -999 -999
2007-12-04 08:11:19 51°13.5 2°51.538 -999 -999 -999 -999
2007-12-04 08:11:25 51°13.501 2°51.542 -999 -999 -999 -999
2007-12-04 08:11:29 51°13.501 2°51.545 -999 -999 -999 -999
2007-12-04 08:11:34 51°13.502 2°51.548 -999 -999 -999 -999
2007-12-04 08:11:39 51°13.503 2°51.552 -999 -999 -999 -999
2007-12-04 08:11:44 51°13.503 2°51.555 -999 -999 -999 -999
2007-12-04 08:11:49 51°13.504 2°51.56 -999 -999 -999 -999
2007-12-04 08:11:55 51°13.505 2°51.564 -999 -999 -999 -999
2007-12-04 08:11:59 51°13.505 2°51.566 -999 -999 -999 -999
2007-12-04 08:12:04 51°13.506 2°51.57 -999 -999 -999 -999
2007-12-04 08:12:09 51°13.507 2°51.573 -999 -999 -999 -999
2007-12-04 08:12:15 51°13.507 2°51.577 -999 -999 -999 -999
2007-12-04 08:12:19 51°13.507 2°51.58 -999 -999 -999 -999
2007-12-04 08:12:24 51°13.508 2°51.584 -999 -999 -999 -999
2007-12-04 08:12:29 51°13.509 2°51.587 -999 -999 -999 -999
2007-12-04 08:12:35 51°13.509 2°51.591 -999 -999 -999 -999
2007-12-04 08:12:39 51°13.51 2°51.594 -999 -999 -999 -999
2007-12-04 08:12:44 51°13.511 2°51.597 -999 -999 -999 -999
2007-12-04 08:12:49 51°13.511 2°51.602 -999 -999 -999 -999
2007-12-04 08:12:53 51°13.511 2°51.603 -999 -999 -999 -999
2007-12-04 08:12:59 51°13.512 2°51.608 -999 -999 -999 -999
2007-12-04 08:13:05 51°13.513 2°51.611 -999 -999 -999 -999
2007-12-04 08:13:09 51°13.512 2°51.615 -999 -999 -999 -999
2007-12-04 08:13:14 51°13.514 2°51.617 -999 -999 -999 -999
2007-12-04 08:13:19 51°13.514 2°51.621 -999 -999 -999 -999
2007-12-04 08:13:25 51°13.514 2°51.625 -999 -999 -999 -999
2007-12-04 08:13:29 51°13.515 2°51.627 -999 -999 -999 -999
2007-12-04 08:13:34 51°13.515 2°51.631 -999 -999 -999 -999
2007-12-04 08:13:39 51°13.515 2°51.634 -999 -999 -999 -999
2007-12-04 08:13:44 51°13.516 2°51.638 -999 -999 -999 -999
2007-12-04 08:13:49 51°13.517 2°51.641 -999 -999 -999 -999
2007-12-04 08:13:54 51°13.517 2°51.645 -999 -999 -999 -999
2007-12-04 08:14:00 51°13.517 2°51.649 -999 -999 -999 -999
2007-12-04 08:14:05 51°13.518 2°51.652 -999 -999 -999 -999
2007-12-04 08:14:09 51°13.518 2°51.654 -999 -999 -999 -999
2007-12-04 08:14:14 51°13.519 2°51.658 -999 -999 -999 -999
2007-12-04 08:14:20 51°13.519 2°51.662 -999 -999 -999 -999
2007-12-04 08:14:25 51°13.519 2°51.665 -999 -999 -999 -999
2007-12-04 08:14:29 51°13.519 2°51.669 -999 -999 -999 -999
2007-12-04 08:14:34 51°13.52 2°51.672 -999 -999 -999 -999
2007-12-04 08:14:39 51°13.521 2°51.675 -999 -999 -999 -999
2007-12-04 08:14:45 51°13.521 2°51.68 -999 -999 -999 -999
2007-12-04 08:14:49 51°13.522 2°51.682 -999 -999 -999 -999
2007-12-04 08:14:54 51°13.522 2°51.686 -999 -999 -999 -999
2007-12-04 08:15:00 51°13.522 2°51.69 -999 -999 -999 -999
2007-12-04 08:15:05 51°13.523 2°51.693 -999 -999 -999 -999
2007-12-04 08:15:09 51°13.523 2°51.696 -999 -999 -999 -999
2007-12-04 08:15:14 51°13.524 2°51.701 -999 -999 -999 -999
2007-12-04 08:15:19 51°13.526 2°51.705 -999 -999 -999 -999
2007-12-04 08:15:25 51°13.527 2°51.713 -999 -999 -999 -999
2007-12-04 08:15:29 51°13.529 2°51.718 -999 -999 -999 -999
2007-12-04 08:15:34 51°13.531 2°51.726 -999 -999 -999 -999
2007-12-04 08:15:39 51°13.533 2°51.735 -999 -999 -999 -999
2007-12-04 08:15:45 51°13.534 2°51.747 -999 -999 -999 -999
2007-12-04 08:15:49 51°13.535 2°51.755 -999 -999 -999 -999
2007-12-04 08:15:53 51°13.536 2°51.764 -999 -999 -999 -999
2007-12-04 08:15:59 51°13.536 2°51.778 -999 -999 -999 -999
2007-12-04 08:16:04 51°13.535 2°51.789 -999 -999 -999 -999
2007-12-04 08:16:09 51°13.533 2°51.8 -999 -999 -999 -999
2007-12-04 08:16:15 51°13.529 2°51.812 -999 -999 -999 -999
2007-12-04 08:16:19 51°13.527 2°51.82 -999 -999 -999 -999
2007-12-04 08:16:24 51°13.522 2°51.828 -999 -999 -999 -999
2007-12-04 08:16:29 51°13.517 2°51.834 -999 -999 -999 -999
2007-12-04 08:16:35 51°13.511 2°51.842 -999 -999 -999 -999
2007-12-04 08:16:39 51°13.506 2°51.845 -999 -999 -999 -999
2007-12-04 08:16:44 51°13.5 2°51.848 -999 -999 -999 -999
2007-12-04 08:16:49 51°13.494 2°51.849 -999 -999 -999 -999
2007-12-04 08:16:53 51°13.49 2°51.85 -999 -999 -999 -999
2007-12-04 08:16:59 51°13.484 2°51.848 -999 -999 -999 -999
2007-12-04 08:17:05 51°13.477 2°51.845 -999 -999 -999 -999
2007-12-04 08:17:09 51°13.473 2°51.842 -999 -999 -999 -999
2007-12-04 08:17:15 51°13.468 2°51.836 -999 -999 -999 -999
2007-12-04 08:17:20 51°13.463 2°51.83 -999 -999 -999 -999
2007-12-04 08:17:25 51°13.457 2°51.825 -999 -999 -999 -999
2007-12-04 08:17:29 51°13.453 2°51.82 -999 -999 -999 -999
2007-12-04 08:17:34 51°13.448 2°51.814 -999 -999 -999 -999
2007-12-04 08:17:39 51°13.442 2°51.807 -999 -999 -999 -999
2007-12-04 08:17:45 51°13.435 2°51.8 -999 -999 -999 -999
2007-12-04 08:17:49 51°13.43 2°51.793 -999 -999 -999 -999
2007-12-04 08:17:54 51°13.423 2°51.787 -999 -999 -999 -999
2007-12-04 08:18:00 51°13.416 2°51.777 -999 -999 -999 -999
2007-12-04 08:18:05 51°13.409 2°51.771 -999 -999 -999 -999
2007-12-04 08:18:09 51°13.405 2°51.764 -999 -999 -999 -999
2007-12-04 08:18:14 51°13.397 2°51.759 -999 -999 -999 -999
2007-12-04 08:18:20 51°13.39 2°51.748 -999 -999 -999 -999
2007-12-04 08:18:25 51°13.382 2°51.742 -999 -999 -999 -999
2007-12-04 08:18:29 51°13.378 2°51.734 -999 -999 -999 -999
2007-12-04 08:18:34 51°13.37 2°51.729 -999 -999 -999 -999
2007-12-04 08:18:40 51°13.363 2°51.719 -999 -999 -999 -999
2007-12-04 08:18:44 51°13.358 2°51.712 -999 -999 -999 -999
2007-12-04 08:18:49 51°13.351 2°51.704 -999 -999 -999 -999
2007-12-04 08:18:55 51°13.343 2°51.695 -999 -999 -999 -999
2007-12-04 08:19:00 51°13.338 2°51.685 -999 -999 -999 -999
2007-12-04 08:19:04 51°13.333 2°51.68 -999 -999 -999 -999
2007-12-04 08:19:09 51°13.326 2°51.671 -999 -999 -999 -999
2007-12-04 08:19:14 51°13.321 2°51.662 -999 -999 -999 -999
2007-12-04 08:19:20 51°13.313 2°51.653 -999 -999 -999 -999
2007-12-04 08:19:24 51°13.309 2°51.644 -999 -999 -999 -999
2007-12-04 08:19:29 51°13.302 2°51.636 -999 -999 -999 -999
2007-12-04 08:19:34 51°13.296 2°51.626 -999 -999 -999 -999
2007-12-04 08:19:40 51°13.288 2°51.617 -999 -999 -999 -999
2007-12-04 08:19:44 51°13.285 2°51.607 -999 -999 -999 -999
2007-12-04 08:19:49 51°13.278 2°51.599 -999 -999 -999 -999
2007-12-04 08:19:53 51°13.274 2°51.59 -999 -999 -999 -999
2007-12-04 08:19:59 51°13.267 2°51.579 -999 -999 -999 -999
2007-12-04 08:20:05 51°13.261 2°51.566 -999 -999 -999 -999
2007-12-04 08:20:09 51°13.256 2°51.559 -999 -999 -999 -999
2007-12-04 08:20:14 51°13.252 2°51.549 -999 -999 -999 -999
2007-12-04 08:20:19 51°13.247 2°51.54 -999 -999 -999 -999
2007-12-04 08:20:25 51°13.242 2°51.53 -999 -999 -999 -999
2007-12-04 08:20:29 51°13.24 2°51.522 -999 -999 -999 -999
2007-12-04 08:20:34 51°13.237 2°51.514 -999 -999 -999 -999
2007-12-04 08:20:39 51°13.236 2°51.506 -999 -999 -999 -999
2007-12-04 08:20:44 51°13.235 2°51.498 -999 -999 -999 -999
2007-12-04 08:20:49 51°13.234 2°51.491 -999 -999 -999 -999
2007-12-04 08:20:54 51°13.234 2°51.485 -999 -999 -999 -999
2007-12-04 08:21:00 51°13.235 2°51.477 -999 -999 -999 -999
2007-12-04 08:21:05 51°13.236 2°51.471 -999 -999 -999 -999
2007-12-04 08:21:09 51°13.237 2°51.466 -999 -999 -999 -999
2007-12-04 08:21:14 51°13.238 2°51.459 -999 -999 -999 -999
2007-12-04 08:21:20 51°13.241 2°51.452 -999 -999 -999 -999
2007-12-04 08:21:25 51°13.243 2°51.445 -999 -999 -999 -999
2007-12-04 08:21:29 51°13.245 2°51.44 -999 -999 -999 -999
2007-12-04 08:21:34 51°13.247 2°51.433 -999 -999 -999 -999
2007-12-04 08:21:39 51°13.251 2°51.426 -999 -999 -999 -999
2007-12-04 08:21:45 51°13.254 2°51.417 -999 -999 -999 -999
2007-12-04 08:21:49 51°13.257 2°51.411 -999 -999 -999 -999
2007-12-04 08:21:54 51°13.26 2°51.403 -999 -999 -999 -999
2007-12-04 08:22:00 51°13.265 2°51.395 -999 -999 -999 -999
2007-12-04 08:22:05 51°13.269 2°51.387 -999 -999 -999 -999
2007-12-04 08:22:09 51°13.273 2°51.382 -999 -999 -999 -999
2007-12-04 08:22:14 51°13.277 2°51.376 -999 -999 -999 -999
2007-12-04 08:22:20 51°13.282 2°51.369 -999 -999 -999 -999
2007-12-04 08:22:25 51°13.286 2°51.363 -999 -999 -999 -999
2007-12-04 08:22:29 51°13.289 2°51.359 -999 -999 -999 -999
2007-12-04 08:22:34 51°13.294 2°51.352 -999 -999 -999 -999
2007-12-04 08:22:39 51°13.298 2°51.346 -999 -999 -999 -999
2007-12-04 08:22:45 51°13.304 2°51.338 -999 -999 -999 -999
2007-12-04 08:22:49 51°13.307 2°51.333 -999 -999 -999 -999
2007-12-04 08:22:53 51°13.312 2°51.329 -999 -999 -999 -999
2007-12-04 08:22:59 51°13.319 2°51.323 -999 -999 -999 -999
2007-12-04 08:23:04 51°13.324 2°51.318 -999 -999 -999 -999
2007-12-04 08:23:09 51°13.331 2°51.314 -999 -999 -999 -999
2007-12-04 08:23:15 51°13.338 2°51.31 -999 -999 -999 -999
2007-12-04 08:23:19 51°13.343 2°51.309 -999 -999 -999 -999
2007-12-04 08:23:24 51°13.35 2°51.307 -999 -999 -999 -999
2007-12-04 08:23:29 51°13.357 2°51.306 -999 -999 -999 -999
2007-12-04 08:23:35 51°13.366 2°51.305 -999 -999 -999 -999
2007-12-04 08:23:39 51°13.371 2°51.305 -999 -999 -999 -999
2007-12-04 08:23:44 51°13.379 2°51.305 -999 -999 -999 -999
2007-12-04 08:23:49 51°13.386 2°51.306 -999 -999 -999 -999
2007-12-04 08:23:53 51°13.391 2°51.306 -999 -999 -999 -999
2007-12-04 08:23:59 51°13.398 2°51.308 -999 -999 -999 -999
2007-12-04 08:24:05 51°13.404 2°51.31 -999 -999 -999 -999
2007-12-04 08:24:09 51°13.408 2°51.311 -999 -999 -999 -999
2007-12-04 08:24:14 51°13.413 2°51.313 -999 -999 -999 -999
2007-12-04 08:24:20 51°13.417 2°51.317 -999 -999 -999 -999
2007-12-04 08:24:25 51°13.421 2°51.319 -999 -999 -999 -999
2007-12-04 08:24:29 51°13.423 2°51.322 -999 -999 -999 -999
2007-12-04 08:24:34 51°13.426 2°51.325 -999 -999 -999 -999
2007-12-04 08:24:40 51°13.428 2°51.329 -999 -999 -999 -999
2007-12-04 08:24:45 51°13.43 2°51.332 -999 -999 -999 -999
2007-12-04 08:24:49 51°13.431 2°51.334 -999 -999 -999 -999
2007-12-04 08:24:54 51°13.432 2°51.337 -999 -999 -999 -999
2007-12-04 08:25:00 51°13.433 2°51.341 -999 -999 -999 -999
2007-12-04 08:25:05 51°13.434 2°51.344 -999 -999 -999 -999
2007-12-04 08:25:09 51°13.434 2°51.346 -999 -999 -999 -999
2007-12-04 08:25:14 51°13.434 2°51.349 -999 -999 -999 -999
2007-12-04 08:25:20 51°13.435 2°51.352 -999 -999 -999 -999
2007-12-04 08:25:25 51°13.435 2°51.356 -999 -999 -999 -999
2007-12-04 08:25:29 51°13.436 2°51.358 -999 -999 -999 -999
2007-12-04 08:25:35 51°13.437 2°51.362 -999 -999 -999 -999
2007-12-04 08:25:41 51°13.437 2°51.365 -999 -999 -999 -999
2007-12-04 08:25:46 51°13.438 2°51.369 -999 -999 -999 -999
2007-12-04 08:25:52 51°13.439 2°51.372 -999 -999 -999 -999
2007-12-04 08:25:57 51°13.439 2°51.376 -999 -999 -999 -999
2007-12-04 08:26:03 51°13.44 2°51.38 -999 -999 -999 -999
2007-12-04 08:26:08 51°13.44 2°51.383 -999 -999 -999 -999
2007-12-04 08:26:13 51°13.441 2°51.387 -999 -999 -999 -999
2007-12-04 08:26:18 51°13.442 2°51.39 -999 -999 -999 -999
2007-12-04 08:26:23 51°13.442 2°51.394 -999 -999 -999 -999
2007-12-04 08:26:28 51°13.442 2°51.397 -999 -999 -999 -999
2007-12-04 08:26:33 51°13.443 2°51.4 -999 -999 -999 -999
2007-12-04 08:26:37 51°13.444 2°51.402 -999 -999 -999 -999
2007-12-04 08:26:42 51°13.444 2°51.405 -999 -999 -999 -999
2007-12-04 08:26:47 51°13.445 2°51.409 -999 -999 -999 -999
2007-12-04 08:26:52 51°13.446 2°51.412 -999 -999 -999 -999
2007-12-04 08:26:57 51°13.446 2°51.416 -999 -999 -999 -999
2007-12-04 08:27:01 51°13.446 2°51.419 -999 -999 -999 -999
2007-12-04 08:27:06 51°13.447 2°51.422 -999 -999 -999 -999
2007-12-04 08:27:11 51°13.448 2°51.425 -999 -999 -999 -999
2007-12-04 08:27:16 51°13.448 2°51.429 -999 -999 -999 -999
2007-12-04 08:27:21 51°13.449 2°51.431 -999 -999 -999 -999
2007-12-04 08:27:26 51°13.449 2°51.435 -999 -999 -999 -999
2007-12-04 08:27:30 51°13.45 2°51.438 -999 -999 -999 -999
2007-12-04 08:27:35 51°13.451 2°51.441 -999 -999 -999 -999
2007-12-04 08:27:40 51°13.451 2°51.445 -999 -999 -999 -999
2007-12-04 08:27:45 51°13.451 2°51.449 -999 -999 -999 -999
2007-12-04 08:27:49 51°13.452 2°51.45 -999 -999 -999 -999
2007-12-04 08:27:54 51°13.453 2°51.454 -999 -999 -999 -999
2007-12-04 08:27:59 51°13.453 2°51.457 -999 -999 -999 -999
2007-12-04 08:28:05 51°13.454 2°51.462 -999 -999 -999 -999
2007-12-04 08:28:09 51°13.455 2°51.464 -999 -999 -999 -999
2007-12-04 08:28:14 51°13.455 2°51.468 -999 -999 -999 -999
2007-12-04 08:28:19 51°13.456 2°51.47 -999 -999 -999 -999
2007-12-04 08:28:25 51°13.456 2°51.475 -999 -999 -999 -999
2007-12-04 08:28:29 51°13.457 2°51.477 -999 -999 -999 -999
2007-12-04 08:28:34 51°13.457 2°51.481 -999 -999 -999 -999
2007-12-04 08:28:40 51°13.458 2°51.485 -999 -999 -999 -999
2007-12-04 08:28:45 51°13.458 2°51.489 -999 -999 -999 -999
2007-12-04 08:28:49 51°13.459 2°51.491 -999 -999 -999 -999
2007-12-04 08:28:54 51°13.459 2°51.495 -999 -999 -999 -999
2007-12-04 08:29:00 51°13.459 2°51.499 -999 -999 -999 -999
2007-12-04 08:29:05 51°13.461 2°51.502 -999 -999 -999 -999
2007-12-04 08:29:09 51°13.46 2°51.505 -999 -999 -999 -999
2007-12-04 08:29:15 51°13.461 2°51.509 -999 -999 -999 -999
2007-12-04 08:29:19 51°13.462 2°51.511 -999 -999 -999 -999
2007-12-04 08:29:25 51°13.462 2°51.515 -999 -999 -999 -999
2007-12-04 08:29:29 51°13.463 2°51.518 -999 -999 -999 -999
2007-12-04 08:29:35 51°13.463 2°51.522 -999 -999 -999 -999
2007-12-04 08:29:39 51°13.463 2°51.525 -999 -999 -999 -999
2007-12-04 08:29:44 51°13.464 2°51.529 -999 -999 -999 -999
2007-12-04 08:29:49 51°13.464 2°51.532 -999 -999 -999 -999
2007-12-04 08:29:55 51°13.465 2°51.536 -999 -999 -999 -999
2007-12-04 08:29:59 51°13.465 2°51.539 -999 -999 -999 -999
2007-12-04 08:30:04 51°13.466 2°51.542 -999 -999 -999 -999
2007-12-04 08:30:09 51°13.466 2°51.546 -999 -999 -999 -999
2007-12-04 08:30:15 51°13.467 2°51.55 -999 -999 -999 -999
2007-12-04 08:30:20 51°13.468 2°51.552 -999 -999 -999 -999
2007-12-04 08:30:25 51°13.468 2°51.556 -999 -999 -999 -999
2007-12-04 08:30:29 51°13.468 2°51.559 -999 -999 -999 -999
2007-12-04 08:30:35 51°13.469 2°51.563 -999 -999 -999 -999
2007-12-04 08:30:40 51°13.47 2°51.566 -999 -999 -999 -999
2007-12-04 08:30:45 51°13.47 2°51.57 -999 -999 -999 -999
2007-12-04 08:30:49 51°13.47 2°51.572 -999 -999 -999 -999
2007-12-04 08:30:55 51°13.471 2°51.576 -999 -999 -999 -999
2007-12-04 08:31:00 51°13.471 2°51.579 -999 -999 -999 -999
2007-12-04 08:31:05 51°13.471 2°51.582 -999 -999 -999 -999
2007-12-04 08:31:09 51°13.472 2°51.585 -999 -999 -999 -999
2007-12-04 08:31:14 51°13.472 2°51.589 -999 -999 -999 -999
2007-12-04 08:31:20 51°13.473 2°51.593 -999 -999 -999 -999
2007-12-04 08:31:25 51°13.474 2°51.596 -999 -999 -999 -999
2007-12-04 08:31:29 51°13.474 2°51.599 -999 -999 -999 -999
2007-12-04 08:31:34 51°13.474 2°51.602 -999 -999 -999 -999
2007-12-04 08:31:39 51°13.475 2°51.606 -999 -999 -999 -999
2007-12-04 08:31:45 51°13.476 2°51.61 -999 -999 -999 -999
2007-12-04 08:31:49 51°13.476 2°51.614 -999 -999 -999 -999
2007-12-04 08:31:54 51°13.478 2°51.618 -999 -999 -999 -999
2007-12-04 08:31:59 51°13.479 2°51.625 -999 -999 -999 -999
2007-12-04 08:32:04 51°13.482 2°51.631 -999 -999 -999 -999
2007-12-04 08:32:09 51°13.485 2°51.637 -999 -999 -999 -999
2007-12-04 08:32:13 51°13.487 2°51.644 -999 -999 -999 -999
2007-12-04 08:32:19 51°13.492 2°51.654 -999 -999 -999 -999
2007-12-04 08:32:24 51°13.496 2°51.663 -999 -999 -999 -999
2007-12-04 08:32:29 51°13.501 2°51.674 -999 -999 -999 -999
2007-12-04 08:32:35 51°13.508 2°51.687 -999 -999 -999 -999
2007-12-04 08:32:40 51°13.514 2°51.7 -999 -999 -999 -999
2007-12-04 08:32:44 51°13.519 2°51.711 -999 -999 -999 -999
2007-12-04 08:32:49 51°13.526 2°51.725 -999 -999 -999 -999
2007-12-04 08:32:55 51°13.534 2°51.745 -999 -999 -999 -999
2007-12-04 08:33:00 51°13.542 2°51.763 -999 -999 -999 -999
2007-12-04 08:33:04 51°13.548 2°51.777 -999 -999 -999 -999
2007-12-04 08:33:09 51°13.556 2°51.797 -999 -999 -999 -999
2007-12-04 08:33:14 51°13.563 2°51.818 -999 -999 -999 -999
2007-12-04 08:33:20 51°13.572 2°51.845 -999 -999 -999 -999
2007-12-04 08:33:25 51°13.58 2°51.869 -999 -999 -999 -999
2007-12-04 08:33:29 51°13.585 2°51.889 -999 -999 -999 -999
2007-12-04 08:33:34 51°13.593 2°51.915 -999 -999 -999 -999
2007-12-04 08:33:40 51°13.602 2°51.946 -999 -999 -999 -999
2007-12-04 08:33:45 51°13.609 2°51.974 -999 -999 -999 -999
2007-12-04 08:33:49 51°13.617 2°51.994 -999 -999 -999 -999
2007-12-04 08:33:54 51°13.623 2°52.022 -999 -999 -999 -999
2007-12-04 08:34:00 51°13.634 2°52.054 -999 -999 -999 -999
2007-12-04 08:34:05 51°13.643 2°52.081 -999 -999 -999 -999
2007-12-04 08:34:09 51°13.65 2°52.102 -999 -999 -999 -999
2007-12-04 08:34:14 51°13.657 2°52.13 -999 -999 -999 -999
2007-12-04 08:34:20 51°13.668 2°52.163 -999 -999 -999 -999
2007-12-04 08:34:25 51°13.677 2°52.19 -999 -999 -999 -999
2007-12-04 08:34:29 51°13.685 2°52.211 -999 -999 -999 -999
2007-12-04 08:34:34 51°13.692 2°52.239 -999 -999 -999 -999
2007-12-04 08:34:40 51°13.704 2°52.271 -999 -999 -999 -999
2007-12-04 08:34:45 51°13.713 2°52.299 -999 -999 -999 -999
2007-12-04 08:34:49 51°13.721 2°52.319 -999 -999 -999 -999
2007-12-04 08:34:54 51°13.728 2°52.348 -999 -999 -999 -999
2007-12-04 08:35:00 51°13.742 2°52.378 -999 -999 -999 -999
2007-12-04 08:35:05 51°13.749 2°52.407 -999 -999 -999 -999
2007-12-04 08:35:09 51°13.757 2°52.427 -999 -999 -999 -999
2007-12-04 08:35:15 51°13.768 2°52.46 -999 -999 -999 -999
2007-12-04 08:35:20 51°13.777 2°52.487 -999 -999 -999 -999
2007-12-04 08:35:25 51°13.787 2°52.514 -999 -999 -999 -999
2007-12-04 08:35:29 51°13.795 2°52.534 -999 -999 -999 -999
2007-12-04 08:35:34 51°13.804 2°52.561 -999 -999 -999 -999
2007-12-04 08:35:40 51°13.815 2°52.593 -999 -999 -999 -999
2007-12-04 08:35:45 51°13.825 2°52.62 -999 -999 -999 -999
2007-12-04 08:35:49 51°13.832 2°52.641 -999 -999 -999 -999
2007-12-04 08:35:54 51°13.84 2°52.668 -999 -999 -999 -999
2007-12-04 08:35:59 51°13.851 2°52.695 -999 -999 -999 -999
2007-12-04 08:36:05 51°13.862 2°52.728 -999 -999 -999 -999
2007-12-04 08:36:09 51°13.869 2°52.749 -999 -999 -999 -999
2007-12-04 08:36:14 51°13.878 2°52.776 -999 -999 -999 -999
2007-12-04 08:36:19 51°13.888 2°52.802 -999 -999 -999 -999
2007-12-04 08:36:25 51°13.898 2°52.835 -999 -999 -999 -999
2007-12-04 08:36:29 51°13.906 2°52.856 -999 -999 -999 -999
2007-12-04 08:36:35 51°13.915 2°52.889 -999 -999 -999 -999
2007-12-04 08:36:39 51°13.924 2°52.908 -999 -999 -999 -999
2007-12-04 08:36:44 51°13.931 2°52.936 -999 -999 -999 -999
2007-12-04 08:36:49 51°13.942 2°52.961 -999 -999 -999 -999
2007-12-04 08:36:55 51°13.951 2°52.994 -999 -999 -999 -999
2007-12-04 08:36:59 51°13.96 2°53.014 -999 -999 -999 -999
2007-12-04 08:37:04 51°13.969 2°53.041 -999 -999 -999 -999
2007-12-04 08:37:09 51°13.978 2°53.067 -999 -999 -999 -999
2007-12-04 08:37:15 51°13.987 2°53.101 -999 -999 -999 -999
2007-12-04 08:37:19 51°13.998 2°53.119 -999 -999 -999 -999
2007-12-04 08:37:24 51°14.005 2°53.147 -999 -999 -999 -999
2007-12-04 08:37:29 51°14.017 2°53.171 -999 -999 -999 -999
2007-12-04 08:37:35 51°14.027 2°53.204 -999 -999 -999 -999
2007-12-04 08:37:40 51°14.04 2°53.228 -999 -999 -999 -999
2007-12-04 08:37:45 51°14.048 2°53.254 -999 -999 -999 -999
2007-12-04 08:37:49 51°14.056 2°53.274 -999 -999 -999 -999
2007-12-04 08:37:54 51°14.066 2°53.3 -999 -999 -999 -999
2007-12-04 08:38:00 51°14.076 2°53.332 -999 -999 -999 -999
2007-12-04 08:38:05 51°14.086 2°53.358 -999 -999 -999 -999
2007-12-04 08:38:09 51°14.094 2°53.379 -999 -999 -999 -999
2007-12-04 08:38:14 51°14.103 2°53.406 -999 -999 -999 -999
2007-12-04 08:38:19 51°14.114 2°53.431 -999 -999 -999 -999
2007-12-04 08:38:25 51°14.125 2°53.463 -999 -999 -999 -999
2007-12-04 08:38:29 51°14.134 2°53.483 -999 -999 -999 -999
2007-12-04 08:38:34 51°14.143 2°53.509 -999 -999 -999 -999
2007-12-04 08:38:39 51°14.153 2°53.535 -999 -999 -999 -999
2007-12-04 08:38:45 51°14.164 2°53.567 -999 -999 -999 -999
2007-12-04 08:38:49 51°14.173 2°53.587 -999 -999 -999 -999
2007-12-04 08:38:55 51°14.184 2°53.619 -999 -999 -999 -999
2007-12-04 08:39:00 51°14.194 2°53.644 -999 -999 -999 -999
2007-12-04 08:39:04 51°14.2 2°53.667 -999 -999 -999 -999
2007-12-04 08:39:09 51°14.212 2°53.691 -999 -999 -999 -999
2007-12-04 08:39:15 51°14.222 2°53.724 -999 -999 -999 -999
2007-12-04 08:39:20 51°14.233 2°53.748 -999 -999 -999 -999
2007-12-04 08:39:24 51°14.239 2°53.77 -999 -999 -999 -999
2007-12-04 08:39:29 51°14.251 2°53.795 -999 -999 -999 -999
2007-12-04 08:39:35 51°14.262 2°53.827 -999 -999 -999 -999
2007-12-04 08:39:40 51°14.272 2°53.852 -999 -999 -999 -999
2007-12-04 08:39:45 51°14.282 2°53.878 -999 -999 -999 -999
2007-12-04 08:39:49 51°14.29 2°53.898 -999 -999 -999 -999
2007-12-04 08:39:55 51°14.301 2°53.93 -999 -999 -999 -999
2007-12-04 08:40:00 51°14.312 2°53.955 -999 -999 -999 -999
2007-12-04 08:40:05 51°14.32 2°53.982 -999 -999 -999 -999
2007-12-04 08:40:09 51°14.33 2°54.001 -999 -999 -999 -999
2007-12-04 08:40:14 51°14.338 2°54.028 -999 -999 -999 -999
2007-12-04 08:40:20 51°14.351 2°54.057 -999 -999 -999 -999
2007-12-04 08:40:25 51°14.36 2°54.084 -999 -999 -999 -999
2007-12-04 08:40:29 51°14.369 2°54.104 -999 -999 -999 -999
2007-12-04 08:40:34 51°14.377 2°54.131 -999 -999 -999 -999
2007-12-04 08:40:40 51°14.39 2°54.161 -999 -999 -999 -999
2007-12-04 08:40:45 51°14.399 2°54.188 -999 -999 -999 -999
2007-12-04 08:40:49 51°14.407 2°54.208 -999 -999 -999 -999
2007-12-04 08:40:54 51°14.416 2°54.234 -999 -999 -999 -999
2007-12-04 08:40:59 51°14.426 2°54.26 -999 -999 -999 -999
2007-12-04 08:41:04 51°14.436 2°54.285 -999 -999 -999 -999
2007-12-04 08:41:09 51°14.445 2°54.312 -999 -999 -999 -999
2007-12-04 08:41:14 51°14.457 2°54.336 -999 -999 -999 -999
2007-12-04 08:41:19 51°14.466 2°54.363 -999 -999 -999 -999
2007-12-04 08:41:25 51°14.479 2°54.392 -999 -999 -999 -999
2007-12-04 08:41:30 51°14.49 2°54.417 -999 -999 -999 -999
2007-12-04 08:41:34 51°14.499 2°54.435 -999 -999 -999 -999
2007-12-04 08:41:39 51°14.509 2°54.461 -999 -999 -999 -999
2007-12-04 08:41:45 51°14.524 2°54.488 -999 -999 -999 -999
2007-12-04 08:41:49 51°14.531 2°54.51 -999 -999 -999 -999
2007-12-04 08:41:54 51°14.545 2°54.53 -999 -999 -999 -999
2007-12-04 08:41:59 51°14.556 2°54.554 -999 -999 -999 -999
2007-12-04 08:42:05 51°14.574 2°54.575 -999 -999 -999 -999
2007-12-04 08:42:09 51°14.584 2°54.592 -999 -999 -999 -999
2007-12-04 08:42:14 51°14.599 2°54.609 -999 -999 -999 -999
2007-12-04 08:42:20 51°14.618 2°54.627 -999 -999 -999 -999
2007-12-04 08:42:25 51°14.634 2°54.643 -999 -999 -999 -999
2007-12-04 08:42:29 51°14.647 2°54.653 -999 -999 -999 -999
2007-12-04 08:42:34 51°14.663 2°54.668 -999 -999 -999 -999
2007-12-04 08:42:40 51°14.683 2°54.682 -999 -999 -999 -999
2007-12-04 08:42:45 51°14.7 2°54.692 -999 -999 -999 -999
2007-12-04 08:42:49 51°14.714 2°54.699 -999 -999 -999 -999
2007-12-04 08:42:54 51°14.731 2°54.706 -999 -999 -999 -999
2007-12-04 08:43:00 51°14.752 2°54.715 -999 -999 -999 -999
2007-12-04 08:43:05 51°14.77 2°54.72 -999 -999 -999 -999
2007-12-04 08:43:09 51°14.784 2°54.724 -999 -999 -999 -999
2007-12-04 08:43:14 51°14.802 2°54.727 -999 -999 -999 -999
2007-12-04 08:43:20 51°14.823 2°54.731 -999 -999 -999 -999
2007-12-04 08:43:24 51°14.837 2°54.731 -999 -999 -999 -999
2007-12-04 08:43:29 51°14.854 2°54.733 -999 -999 -999 -999
2007-12-04 08:43:34 51°14.872 2°54.734 -999 -999 -999 -999
2007-12-04 08:43:40 51°14.893 2°54.734 -999 -999 -999 -999
2007-12-04 08:43:44 51°14.907 2°54.734 -999 -999 -999 -999
2007-12-04 08:43:49 51°14.925 2°54.731 -999 -999 -999 -999
2007-12-04 08:43:55 51°14.945 2°54.728 -999 -999 -999 -999
2007-12-04 08:44:00 51°14.962 2°54.723 -999 -999 -999 -999
2007-12-04 08:44:05 51°14.979 2°54.719 -999 -999 -999 -999
2007-12-04 08:44:09 51°14.993 2°54.715 -999 -999 -999 -999
2007-12-04 08:44:15 51°15.014 2°54.708 -999 -999 -999 -999
2007-12-04 08:44:20 51°15.03 2°54.703 -999 -999 -999 -999
2007-12-04 08:44:25 51°15.048 2°54.697 -999 -999 -999 -999
2007-12-04 08:44:29 51°15.061 2°54.693 -999 -999 -999 -999
2007-12-04 08:44:34 51°15.078 2°54.687 -999 -999 -999 -999
2007-12-04 08:44:40 51°15.098 2°54.681 -999 -999 -999 -999
2007-12-04 08:44:45 51°15.115 2°54.676 -999 -999 -999 -999
2007-12-04 08:44:49 51°15.129 2°54.671 -999 -999 -999 -999
2007-12-04 08:44:54 51°15.145 2°54.666 -999 -999 -999 -999
2007-12-04 08:45:00 51°15.165 2°54.661 -999 -999 -999 -999
2007-12-04 08:45:05 51°15.181 2°54.657 -999 -999 -999 -999
2007-12-04 08:45:10 51°15.198 2°54.652 -999 -999 -999 -999
2007-12-04 08:45:14 51°15.211 2°54.649 -999 -999 -999 -999
2007-12-04 08:45:19 51°15.228 2°54.644 -999 -999 -999 -999
2007-12-04 08:45:25 51°15.247 2°54.639 -999 -999 -999 -999
2007-12-04 08:45:29 51°15.261 2°54.635 -999 -999 -999 -999
2007-12-04 08:45:33 51°15.274 2°54.631 -999 -999 -999 -999
2007-12-04 08:45:39 51°15.294 2°54.625 -999 -999 -999 -999
2007-12-04 08:45:44 51°15.312 2°54.621 -999 -999 -999 -999
2007-12-04 08:45:49 51°15.329 2°54.616 -999 -999 -999 -999
2007-12-04 08:45:55 51°15.348 2°54.611 -999 -999 -999 -999
2007-12-04 08:46:00 51°15.365 2°54.606 -999 -999 -999 -999
2007-12-04 08:46:04 51°15.378 2°54.602 -999 -999 -999 -999
2007-12-04 08:46:09 51°15.394 2°54.596 -999 -999 -999 -999
2007-12-04 08:46:15 51°15.413 2°54.589 -999 -999 -999 -999
2007-12-04 08:46:20 51°15.43 2°54.582 -999 -999 -999 -999
2007-12-04 08:46:24 51°15.443 2°54.577 -999 -999 -999 -999
2007-12-04 08:46:29 51°15.46 2°54.572 -999 -999 -999 -999
2007-12-04 08:46:35 51°15.479 2°54.564 -999 -999 -999 -999
2007-12-04 08:46:40 51°15.495 2°54.56 -999 -999 -999 -999
2007-12-04 08:46:45 51°15.512 2°54.554 -999 -999 -999 -999
2007-12-04 08:46:49 51°15.525 2°54.549 -999 -999 -999 -999
2007-12-04 08:46:54 51°15.54 2°54.543 -999 -999 -999 -999
2007-12-04 08:47:00 51°15.559 2°54.535 -999 -999 -999 -999
2007-12-04 08:47:05 51°15.576 2°54.529 -999 -999 -999 -999
2007-12-04 08:47:09 51°15.589 2°54.524 -999 -999 -999 -999
2007-12-04 08:47:14 51°15.606 2°54.517 -999 -999 -999 -999
2007-12-04 08:47:20 51°15.626 2°54.509 -999 -999 -999 -999
2007-12-04 08:47:25 51°15.643 2°54.503 -999 -999 -999 -999
2007-12-04 08:47:29 51°15.656 2°54.497 -999 -999 -999 -999
2007-12-04 08:47:35 51°15.676 2°54.49 -999 -999 -999 -999
2007-12-04 08:47:39 51°15.689 2°54.484 -999 -999 -999 -999
2007-12-04 08:47:45 51°15.709 2°54.476 -999 -999 -999 -999
2007-12-04 08:47:49 51°15.723 2°54.471 -999 -999 -999 -999
2007-12-04 08:47:55 51°15.742 2°54.462 -999 -999 -999 -999
2007-12-04 08:47:59 51°15.755 2°54.455 -999 -999 -999 -999
2007-12-04 08:48:04 51°15.771 2°54.447 -999 -999 -999 -999
2007-12-04 08:48:09 51°15.788 2°54.439 -999 -999 -999 -999
2007-12-04 08:48:15 51°15.807 2°54.429 -999 -999 -999 -999
2007-12-04 08:48:19 51°15.82 2°54.422 -999 -999 -999 -999
2007-12-04 08:48:24 51°15.836 2°54.413 -999 -999 -999 -999
2007-12-04 08:48:29 51°15.852 2°54.404 -999 -999 -999 -999
2007-12-04 08:48:35 51°15.871 2°54.394 -999 -999 -999 -999
2007-12-04 08:48:39 51°15.883 2°54.387 -999 -999 -999 -999
2007-12-04 08:48:44 51°15.899 2°54.379 -999 -999 -999 -999
2007-12-04 08:48:49 51°15.915 2°54.371 -999 -999 -999 -999
2007-12-04 08:48:55 51°15.935 2°54.36 -999 -999 -999 -999
2007-12-04 08:49:00 51°15.951 2°54.352 -999 -999 -999 -999
2007-12-04 08:49:05 51°15.966 2°54.343 -999 -999 -999 -999
2007-12-04 08:49:09 51°15.979 2°54.336 -999 -999 -999 -999
2007-12-04 08:49:14 51°15.995 2°54.328 -999 -999 -999 -999
2007-12-04 08:49:20 51°16.014 2°54.318 -999 -999 -999 -999
2007-12-04 08:49:25 51°16.029 2°54.31 -999 -999 -999 -999
2007-12-04 08:49:29 51°16.042 2°54.304 -999 -999 -999 -999
2007-12-04 08:49:34 51°16.057 2°54.297 -999 -999 -999 -999
2007-12-04 08:49:39 51°16.071 2°54.29 -999 -999 -999 -999
2007-12-04 08:49:45 51°16.089 2°54.282 -999 -999 -999 -999
2007-12-04 08:49:49 51°16.1 2°54.276 -999 -999 -999 -999
2007-12-04 08:49:54 51°16.114 2°54.27 -999 -999 -999 -999
2007-12-04 08:49:59 51°16.127 2°54.263 -999 -999 -999 -999
2007-12-04 08:50:05 51°16.141 2°54.257 -999 -999 -999 -999
2007-12-04 08:50:09 51°16.15 2°54.253 -999 -999 -999 -999
2007-12-04 08:50:14 51°16.16 2°54.249 -999 -999 -999 -999
2007-12-04 08:50:19 51°16.17 2°54.246 -999 -999 -999 -999
2007-12-04 08:50:24 51°16.178 2°54.243 -999 -999 -999 -999
2007-12-04 08:50:29 51°16.186 2°54.241 -999 -999 -999 -999
2007-12-04 08:50:35 51°16.194 2°54.239 -999 -999 -999 -999
2007-12-04 08:50:40 51°16.2 2°54.239 -999 -999 -999 -999
2007-12-04 08:50:45 51°16.206 2°54.238 -999 -999 -999 -999
2007-12-04 08:50:49 51°16.21 2°54.238 -999 -999 -999 -999
2007-12-04 08:50:55 51°16.216 2°54.238 -999 -999 -999 -999
2007-12-04 08:51:00 51°16.221 2°54.24 -999 -999 -999 -999
2007-12-04 08:51:05 51°16.224 2°54.241 -999 -999 -999 -999
2007-12-04 08:51:09 51°16.228 2°54.242 -999 -999 -999 -999
2007-12-04 08:51:15 51°16.231 2°54.246 -999 -999 -999 -999
2007-12-04 08:51:20 51°16.234 2°54.249 -999 -999 -999 -999
2007-12-04 08:51:25 51°16.236 2°54.251 -999 -999 -999 -999
2007-12-04 08:51:29 51°16.238 2°54.253 -999 -999 -999 -999
2007-12-04 08:51:34 51°16.24 2°54.257 -999 -999 -999 -999
2007-12-04 08:51:40 51°16.242 2°54.261 -999 -999 -999 -999
2007-12-04 08:51:45 51°16.244 2°54.263 -999 -999 -999 -999
2007-12-04 08:51:49 51°16.245 2°54.266 -999 -999 -999 -999
2007-12-04 08:51:54 51°16.246 2°54.269 -999 -999 -999 -999
2007-12-04 08:51:59 51°16.247 2°54.272 -999 -999 -999 -999
2007-12-04 08:52:05 51°16.248 2°54.275 -999 -999 -999 -999
2007-12-04 08:52:09 51°16.248 2°54.277 -999 -999 -999 -999
2007-12-04 08:52:14 51°16.248 2°54.279 -999 -999 -999 -999
2007-12-04 08:52:19 51°16.248 2°54.281 -999 -999 -999 -999
2007-12-04 08:52:25 51°16.249 2°54.284 -999 -999 -999 -999
2007-12-04 08:52:29 51°16.249 2°54.288 -999 -999 -999 -999
2007-12-04 08:52:35 51°16.249 2°54.291 -999 -999 -999 -999
2007-12-04 08:52:39 51°16.25 2°54.292 -999 -999 -999 -999
2007-12-04 08:52:44 51°16.25 2°54.295 -999 -999 -999 -999
2007-12-04 08:52:49 51°16.251 2°54.297 -999 -999 -999 -999
2007-12-04 08:52:55 51°16.251 2°54.301 -999 -999 -999 -999
2007-12-04 08:53:00 51°16.251 2°54.303 -999 -999 -999 -999
2007-12-04 08:53:06 51°16.252 2°54.306 -999 -999 -999 -999
2007-12-04 08:53:11 51°16.252 2°54.309 -999 -999 -999 -999
2007-12-04 08:53:17 51°16.252 2°54.313 -999 -999 -999 -999
2007-12-04 08:53:22 51°16.253 2°54.315 -999 -999 -999 -999
2007-12-04 08:53:27 51°16.254 2°54.317 -999 -999 -999 -999
2007-12-04 08:53:32 51°16.253 2°54.321 -999 -999 -999 -999
2007-12-04 08:53:37 51°16.254 2°54.323 -999 -999 -999 -999
2007-12-04 08:53:42 51°16.254 2°54.327 -999 -999 -999 -999
2007-12-04 08:53:46 51°16.255 2°54.328 -999 -999 -999 -999
2007-12-04 08:53:51 51°16.254 2°54.332 -999 -999 -999 -999
2007-12-04 08:53:56 51°16.255 2°54.334 -999 -999 -999 -999
2007-12-04 08:54:01 51°16.256 2°54.336 -999 -999 -999 -999
2007-12-04 08:54:06 51°16.256 2°54.339 -999 -999 -999 -999
2007-12-04 08:54:10 51°16.257 2°54.342 -999 -999 -999 -999
2007-12-04 08:54:15 51°16.257 2°54.345 -999 -999 -999 -999
2007-12-04 08:54:20 51°16.257 2°54.348 -999 -999 -999 -999
2007-12-04 08:54:25 51°16.257 2°54.351 -999 -999 -999 -999
2007-12-04 08:54:30 51°16.258 2°54.354 -999 -999 -999 -999
2007-12-04 08:54:35 51°16.259 2°54.357 -999 -999 -999 -999
2007-12-04 08:54:39 51°16.259 2°54.36 -999 -999 -999 -999
2007-12-04 08:54:45 51°16.26 2°54.363 -999 -999 -999 -999
2007-12-04 08:54:49 51°16.26 2°54.366 -999 -999 -999 -999
2007-12-04 08:54:55 51°16.261 2°54.369 -999 -999 -999 -999
2007-12-04 08:55:00 51°16.262 2°54.372 -999 -999 -999 -999
2007-12-04 08:55:05 51°16.262 2°54.376 -999 -999 -999 -999
2007-12-04 08:55:09 51°16.263 2°54.378 -999 -999 -999 -999
2007-12-04 08:55:15 51°16.263 2°54.383 -999 -999 -999 -999
2007-12-04 08:55:20 51°16.264 2°54.385 -999 -999 -999 -999
2007-12-04 08:55:25 51°16.264 2°54.39 -999 -999 -999 -999
2007-12-04 08:55:29 51°16.266 2°54.391 -999 -999 -999 -999
2007-12-04 08:55:35 51°16.265 2°54.396 -999 -999 -999 -999
2007-12-04 08:55:40 51°16.267 2°54.399 -999 -999 -999 -999
2007-12-04 08:55:45 51°16.267 2°54.402 -999 -999 -999 -999
2007-12-04 08:55:49 51°16.268 2°54.404 -999 -999 -999 -999
2007-12-04 08:55:54 51°16.268 2°54.408 -999 -999 -999 -999
2007-12-04 08:56:00 51°16.269 2°54.412 -999 -999 -999 -999
2007-12-04 08:56:05 51°16.27 2°54.415 -999 -999 -999 -999
2007-12-04 08:56:09 51°16.27 2°54.417 -999 -999 -999 -999
2007-12-04 08:56:14 51°16.271 2°54.421 -999 -999 -999 -999
2007-12-04 08:56:19 51°16.272 2°54.425 -999 -999 -999 -999
2007-12-04 08:56:25 51°16.272 2°54.429 -999 -999 -999 -999
2007-12-04 08:56:29 51°16.273 2°54.431 -999 -999 -999 -999
2007-12-04 08:56:35 51°16.274 2°54.435 -999 -999 -999 -999
2007-12-04 08:56:39 51°16.275 2°54.438 -999 -999 -999 -999
2007-12-04 08:56:45 51°16.275 2°54.442 -999 -999 -999 -999
2007-12-04 08:56:49 51°16.276 2°54.444 -999 -999 -999 -999
2007-12-04 08:56:55 51°16.277 2°54.449 -999 -999 -999 -999
2007-12-04 08:56:59 51°16.277 2°54.451 -999 -999 -999 -999
2007-12-04 08:57:04 51°16.278 2°54.455 -999 -999 -999 -999
2007-12-04 08:57:09 51°16.279 2°54.458 -999 -999 -999 -999
2007-12-04 08:57:15 51°16.28 2°54.463 -999 -999 -999 -999
2007-12-04 08:57:19 51°16.281 2°54.465 -999 -999 -999 -999
2007-12-04 08:57:25 51°16.281 2°54.47 -999 -999 -999 -999
2007-12-04 08:57:29 51°16.282 2°54.472 -999 -999 -999 -999
2007-12-04 08:57:35 51°16.283 2°54.476 -999 -999 -999 -999
2007-12-04 08:57:39 51°16.283 2°54.48 -999 -999 -999 -999
2007-12-04 08:57:45 51°16.285 2°54.483 -999 -999 -999 -999
2007-12-04 08:57:49 51°16.285 2°54.486 -999 -999 -999 -999
2007-12-04 08:57:55 51°16.286 2°54.49 -999 -999 -999 -999
2007-12-04 08:58:00 51°16.287 2°54.493 -999 -999 -999 -999
2007-12-04 08:58:05 51°16.288 2°54.496 -999 -999 -999 -999
2007-12-04 08:58:09 51°16.289 2°54.499 -999 -999 -999 -999
2007-12-04 08:58:14 51°16.289 2°54.502 -999 -999 -999 -999
2007-12-04 08:58:20 51°16.29 2°54.506 -999 -999 -999 -999